Terminal Aerodrome Forecast
Issued by NWS Sterling, VA

Current Version | Previous Version | Graphics & Text | Print | Product List | Glossary On
Versions: 1 2 3 4 5 6 7 8 9 10 11 12 13 14 15 16 17 18 19 20 21 22 23 24 25 26 27 28
955
FTUS41 KLWX 300542 RRA
TAFDCA
TAF
KDCA 300542Z 3006/0106 21004KT 3SM BR OVC012
     FM300900 16006KT 1SM -RA BR OVC008
     FM301400 17009KT 1SM BR OVC003
     FM301900 19012KT P6SM OVC015
     FM302100 19011KT 5SM SHRA OVC020
     FM302300 19012KT 5SM SHRA OVC010
     FM010500 25009KT 4SM -SHRA BKN025=

USA.gov is the U.S. government's official web portal to all federal, state and local government web resources and services.